createdAt,value
2019-02-23T00:01:25.535Z,12.80
2019-02-23T00:04:08.354Z,12.90
2019-02-23T00:06:54.623Z,13.00
2019-02-23T00:09:35.506Z,13.00
2019-02-23T00:12:31.216Z,13.10
2019-02-23T00:15:13.080Z,13.10
2019-02-23T00:18:02.772Z,13.20
2019-02-23T00:20:50.073Z,13.20
2019-02-23T00:23:37.135Z,13.20
2019-02-23T00:26:27.385Z,13.20
2019-02-23T00:29:17.325Z,13.20
2019-02-23T00:31:59.209Z,13.20
2019-02-23T00:34:45.211Z,13.20
2019-02-23T00:37:29.410Z,13.20
2019-02-23T00:40:11.193Z,13.40
2019-02-23T00:42:55.860Z,13.30
2019-02-23T00:45:45.283Z,13.40
2019-02-23T00:48:28.376Z,13.50
2019-02-23T00:51:08.096Z,13.50
2019-02-23T00:53:53.850Z,13.60
2019-02-23T00:56:35.986Z,13.60
2019-02-23T00:59:20.475Z,13.60
2019-02-23T01:02:06.300Z,13.60
2019-02-23T01:04:54.906Z,13.50
2019-02-23T01:07:38.657Z,13.50
2019-02-23T01:10:19.772Z,13.50
2019-02-23T01:13:07.988Z,13.60
2019-02-23T01:16:12.332Z,13.60
2019-02-23T01:19:13.605Z,13.50
2019-02-23T01:21:54.251Z,13.50
2019-02-23T01:24:47.382Z,13.60
2019-02-23T01:27:28.725Z,13.70
2019-02-23T01:30:13.954Z,13.50
2019-02-23T01:33:03.403Z,13.60
2019-02-23T01:36:06.050Z,13.70
2019-02-23T01:38:50.027Z,13.70
2019-02-23T01:41:36.587Z,13.80
2019-02-23T01:44:16.811Z,13.70
2019-02-23T01:47:03.593Z,13.70
2019-02-23T01:50:08.537Z,13.80
2019-02-23T01:52:53.068Z,13.80
2019-02-23T01:55:39.116Z,13.80
2019-02-23T01:58:37.701Z,13.80
2019-02-23T02:01:25.392Z,13.70
2019-02-23T02:04:13.042Z,13.80
2019-02-23T02:06:56.978Z,13.90
2019-02-23T02:09:39.606Z,13.90
2019-02-23T02:12:21.874Z,14.00
2019-02-23T02:15:24.680Z,14.00
2019-02-23T02:18:25.986Z,14.10
2019-02-23T02:21:13.829Z,14.10
2019-02-23T02:23:57.021Z,14.10
2019-02-23T02:26:38.519Z,14.00
2019-02-23T02:29:21.781Z,13.90
2019-02-23T02:32:04.395Z,13.90
2019-02-23T02:34:50.844Z,13.80
2019-02-23T02:37:35.447Z,13.80
2019-02-23T02:40:18.990Z,13.70
2019-02-23T02:43:07.003Z,13.90
2019-02-23T02:45:54.939Z,13.90
2019-02-23T02:48:43.770Z,13.80
2019-02-23T02:51:36.970Z,13.80
2019-02-23T02:54:20.197Z,13.90
2019-02-23T02:57:01.961Z,14.00
2019-02-23T02:59:57.517Z,14.10
2019-02-23T03:02:56.581Z,14.10
2019-02-23T03:05:37.621Z,14.00
2019-02-23T03:08:30.451Z,14.10
2019-02-23T03:11:16.517Z,14.00
2019-02-23T03:14:19.644Z,14.00
2019-02-23T03:17:06.993Z,14.10
2019-02-23T03:19:53.157Z,14.10
2019-02-23T03:22:35.831Z,14.30
2019-02-23T03:25:29.132Z,14.50
2019-02-23T03:28:23.556Z,14.80
2019-02-23T03:31:10.471Z,14.90
2019-02-23T03:33:54.215Z,14.80
2019-02-23T03:36:39.320Z,14.90
2019-02-23T03:39:39.923Z,14.80
2019-02-23T03:45:48.580Z,14.70
2019-02-23T03:48:41.868Z,14.80
2019-02-23T03:51:27.273Z,14.90
2019-02-23T03:54:11.834Z,14.90
2019-02-23T03:57:05.701Z,14.80
2019-02-23T03:59:51.256Z,14.70
2019-02-23T04:02:39.306Z,14.90
2019-02-23T04:05:29.399Z,14.90
2019-02-23T04:08:15.389Z,14.80
2019-02-23T04:11:19.215Z,14.70
2019-02-23T04:14:04.501Z,14.60
2019-02-23T04:16:47.719Z,14.80
2019-02-23T04:19:36.379Z,14.70
2019-02-23T04:22:19.443Z,14.70
2019-02-23T04:25:10.715Z,14.70
2019-02-23T04:28:16.193Z,14.60
2019-02-23T04:31:06.089Z,14.70
2019-02-23T04:33:58.970Z,14.70
2019-02-23T04:36:48.926Z,14.80
2019-02-23T04:39:34.163Z,14.80
2019-02-23T04:42:29.133Z,14.80
2019-02-23T04:45:30.098Z,14.90
2019-02-23T04:48:21.784Z,14.90
2019-02-23T04:51:14.663Z,14.90
2019-02-23T04:54:03.965Z,14.90
2019-02-23T04:57:03.857Z,14.80
2019-02-23T05:00:05.194Z,14.80
2019-02-23T05:02:59.213Z,14.80
2019-02-23T05:05:58.932Z,14.80
2019-02-23T05:08:47.355Z,14.80
2019-02-23T05:11:44.176Z,14.80
2019-02-23T05:14:39.955Z,14.90
2019-02-23T05:17:27.781Z,14.80
2019-02-23T05:20:27.285Z,14.80
2019-02-23T05:23:16.812Z,14.90
2019-02-23T05:26:16.523Z,14.90
2019-02-23T05:29:11.820Z,14.90
2019-02-23T05:32:10.689Z,14.70
2019-02-23T05:35:04.112Z,14.70
2019-02-23T05:37:49.278Z,14.60
2019-02-23T05:40:52.152Z,14.60
2019-02-23T05:43:35.458Z,14.60
2019-02-23T05:46:52.304Z,14.50
2019-02-23T05:49:42.663Z,14.50
2019-02-23T05:52:38.606Z,14.40
2019-02-23T05:55:33.685Z,14.50
2019-02-23T05:58:30.244Z,14.50
2019-02-23T06:01:15.216Z,14.50
2019-02-23T06:04:06.096Z,14.60
2019-02-23T06:06:52.993Z,14.70
2019-02-23T06:09:42.400Z,14.80
2019-02-23T06:12:44.065Z,14.60
2019-02-23T06:15:45.177Z,14.60
2019-02-23T06:18:42.505Z,14.50
2019-02-23T06:22:03.916Z,14.60
2019-02-23T06:24:57.279Z,14.60
2019-02-23T06:27:55.002Z,14.50
2019-02-23T06:30:53.590Z,14.50
2019-02-23T06:33:44.043Z,14.40
2019-02-23T06:36:35.647Z,14.40
2019-02-23T06:39:28.973Z,14.40
2019-02-23T06:42:27.409Z,14.40
2019-02-23T06:45:26.661Z,14.40
2019-02-23T06:48:22.119Z,14.40
2019-02-23T06:51:21.523Z,14.40
2019-02-23T06:54:12.689Z,14.40
2019-02-23T06:57:01.213Z,14.50
2019-02-23T06:59:56.869Z,14.50
2019-02-23T07:02:53.708Z,14.50
2019-02-23T07:05:54.655Z,14.30
2019-02-23T07:08:46.461Z,14.30
2019-02-23T07:11:48.609Z,14.20
2019-02-23T07:14:53.972Z,14.20
2019-02-23T07:17:37.108Z,14.20
2019-02-23T07:20:44.562Z,14.20
2019-02-23T07:23:33.930Z,14.30
2019-02-23T07:26:35.348Z,14.40
2019-02-23T07:29:34.195Z,14.40
2019-02-23T07:32:28.112Z,14.40
2019-02-23T07:35:31.193Z,14.40
2019-02-23T07:38:31.961Z,14.40
2019-02-23T07:41:24.686Z,14.30
2019-02-23T07:44:36.039Z,14.40
2019-02-23T07:47:51.272Z,14.40
2019-02-23T07:50:54.088Z,14.30
2019-02-23T07:53:58.723Z,14.30
2019-02-23T07:56:53.462Z,14.30
2019-02-23T07:59:42.390Z,14.20
2019-02-23T08:02:54.239Z,14.20
2019-02-23T08:05:39.722Z,14.20
2019-02-23T08:08:42.592Z,14.20
2019-02-23T08:11:36.654Z,14.10
2019-02-23T08:14:30.940Z,14.10
2019-02-23T08:17:16.172Z,14.20
2019-02-23T08:20:18.795Z,14.20
2019-02-23T08:23:05.776Z,14.10
2019-02-23T08:26:12.466Z,14.00
2019-02-23T08:29:12.338Z,14.00
2019-02-23T08:32:07.381Z,14.00
2019-02-23T08:35:09.317Z,14.00
2019-02-23T08:38:07.193Z,13.80
2019-02-23T08:40:52.047Z,14.00
2019-02-23T08:43:59.127Z,14.10
2019-02-23T08:46:42.336Z,14.00
2019-02-23T08:49:32.893Z,14.00
2019-02-23T08:52:17.686Z,14.00
2019-02-23T08:55:18.575Z,13.90
2019-02-23T08:58:10.543Z,13.90
2019-02-23T09:01:05.064Z,13.90
2019-02-23T09:04:04.411Z,13.90
2019-02-23T09:07:22.931Z,13.90
2019-02-23T09:10:36.468Z,13.90
2019-02-23T09:13:24.230Z,13.90
2019-02-23T09:16:26.481Z,13.90
2019-02-23T09:19:30.866Z,13.90
2019-02-23T09:22:18.816Z,13.80
2019-02-23T09:25:12.617Z,13.80
2019-02-23T09:28:11.039Z,13.70
2019-02-23T09:31:03.584Z,13.70
2019-02-23T09:33:52.713Z,13.70
2019-02-23T09:36:48.381Z,13.70
2019-02-23T09:39:44.085Z,13.70
2019-02-23T09:42:36.584Z,13.70
2019-02-23T09:45:23.967Z,13.70
2019-02-23T09:48:12.309Z,13.70
2019-02-23T09:51:04.913Z,13.70
2019-02-23T09:53:59.062Z,13.70
2019-02-23T09:56:44.133Z,13.70
2019-02-23T09:59:32.194Z,13.70
2019-02-23T10:02:13.577Z,13.70
2019-02-23T10:05:04.354Z,13.70
2019-02-23T10:08:02.989Z,13.70
2019-02-23T10:10:51.111Z,13.70
2019-02-23T10:13:36.238Z,13.60
2019-02-23T10:16:22.484Z,13.60
2019-02-23T10:19:07.241Z,13.60
2019-02-23T10:21:52.880Z,13.60
2019-02-23T10:24:37.899Z,13.70
2019-02-23T10:27:33.105Z,13.60
2019-02-23T10:30:25.290Z,13.70
2019-02-23T10:33:12.272Z,13.70
2019-02-23T10:35:55.842Z,13.60
2019-02-23T10:38:43.360Z,13.60
2019-02-23T10:41:25.558Z,13.50
2019-02-23T10:44:31.347Z,13.50
2019-02-23T10:47:25.299Z,13.50
2019-02-23T10:50:11.686Z,13.50
2019-02-23T10:53:04.918Z,13.40
2019-02-23T10:55:58.020Z,13.40
2019-02-23T10:58:42.771Z,13.40
2019-02-23T11:01:39.584Z,13.40
2019-02-23T11:04:26.888Z,13.40
2019-02-23T11:07:15.027Z,13.40
2019-02-23T11:10:03.760Z,13.40
2019-02-23T11:13:12.465Z,13.40
2019-02-23T11:16:01.710Z,13.40
2019-02-23T11:18:50.179Z,13.30
2019-02-23T11:21:51.757Z,13.50
2019-02-23T11:24:39.360Z,13.50
2019-02-23T11:27:44.255Z,13.50
2019-02-23T11:30:37.913Z,13.40
2019-02-23T11:33:31.856Z,13.40
2019-02-23T11:36:23.029Z,13.40
2019-02-23T11:39:11.830Z,13.30
2019-02-23T11:42:04.340Z,13.30
2019-02-23T11:45:08.166Z,13.30
2019-02-23T11:48:04.078Z,13.40
2019-02-23T11:50:49.762Z,13.40
2019-02-23T11:53:37.988Z,13.40
2019-02-23T11:59:53.205Z,13.50
2019-02-23T12:02:39.432Z,13.40
2019-02-23T12:05:26.537Z,13.30
2019-02-23T12:08:27.671Z,13.40
2019-02-23T12:11:23.216Z,13.40
2019-02-23T12:14:06.579Z,13.30
2019-02-23T12:17:28.368Z,13.30
2019-02-23T12:20:51.411Z,13.20
2019-02-23T12:23:35.681Z,13.20
2019-02-23T12:26:55.292Z,13.20
2019-02-23T12:30:05.653Z,13.30
2019-02-23T12:33:02.045Z,13.20
2019-02-23T12:35:56.775Z,13.30
2019-02-23T12:39:03.429Z,13.30
2019-02-23T12:42:21.000Z,13.40
2019-02-23T12:45:35.032Z,13.40
2019-02-23T12:48:44.736Z,13.40
2019-02-23T12:52:11.899Z,13.40
2019-02-23T12:55:18.218Z,13.40
2019-02-23T12:58:28.196Z,13.40
2019-02-23T13:01:27.663Z,13.50
2019-02-23T13:04:35.296Z,13.40
2019-02-23T13:07:24.303Z,13.30
2019-02-23T13:11:01.156Z,13.20
2019-02-23T13:18:40.678Z,13.00
2019-02-23T13:22:03.756Z,13.00
2019-02-23T13:25:29.786Z,13.10
2019-02-23T13:28:52.191Z,13.00
2019-02-23T13:32:20.579Z,13.10
2019-02-23T13:35:50.857Z,13.10
2019-02-23T13:39:32.180Z,13.00
2019-02-23T13:43:14.725Z,13.00
2019-02-23T13:46:32.414Z,12.90
2019-02-23T13:50:24.344Z,12.90
2019-02-23T13:53:53.656Z,12.80
2019-02-23T13:57:04.778Z,12.80
2019-02-23T14:00:53.103Z,12.80
2019-02-23T14:04:31.246Z,12.90
2019-02-23T14:08:19.847Z,12.80
2019-02-23T14:11:57.203Z,12.80
2019-02-23T14:15:33.782Z,12.80
2019-02-23T14:19:20.007Z,12.80
2019-02-23T14:23:02.292Z,12.80
2019-02-23T14:26:47.920Z,12.70
2019-02-23T14:30:10.181Z,12.70
2019-02-23T14:33:39.871Z,12.70
2019-02-23T14:44:50.893Z,12.60
2019-02-23T14:48:35.827Z,12.60
2019-02-23T14:52:02.869Z,12.60
2019-02-23T14:55:51.686Z,12.60
2019-02-23T14:59:36.796Z,12.60
2019-02-23T15:03:29.866Z,12.50
2019-02-23T15:06:40.962Z,12.50
2019-02-23T15:13:48.957Z,12.60
2019-02-23T15:17:12.213Z,12.70
2019-02-23T15:20:43.612Z,12.50
2019-02-23T15:24:07.178Z,12.50
2019-02-23T15:27:29.112Z,12.50
2019-02-23T15:30:46.409Z,12.50
2019-02-23T15:34:19.348Z,12.50
2019-02-23T15:37:53.142Z,12.50
2019-02-23T15:41:26.949Z,12.60
2019-02-23T15:45:15.633Z,12.50
2019-02-23T15:48:50.428Z,12.50
2019-02-23T15:52:16.678Z,12.50
2019-02-23T15:55:33.034Z,12.40
2019-02-23T15:58:59.194Z,12.40
2019-02-23T16:02:24.144Z,12.40
2019-02-23T16:09:35.061Z,12.40
2019-02-23T16:12:51.136Z,12.40
2019-02-23T16:15:53.240Z,12.40
2019-02-23T16:19:18.650Z,12.50
2019-02-23T16:22:09.194Z,12.40
2019-02-23T16:25:10.583Z,12.40
2019-02-23T16:31:54.232Z,12.40
2019-02-23T16:34:58.347Z,12.40
2019-02-23T16:38:04.899Z,12.30
2019-02-23T16:41:04.089Z,12.40
2019-02-23T16:43:55.319Z,12.30
2019-02-23T16:47:13.584Z,12.20
2019-02-23T16:50:27.676Z,12.30
2019-02-23T16:53:48.591Z,12.20
2019-02-23T16:56:50.708Z,12.30
2019-02-23T16:59:57.571Z,12.20
2019-02-23T17:02:40.587Z,12.30
2019-02-23T17:05:54.435Z,12.30
2019-02-23T17:08:45.014Z,12.30
2019-02-23T17:11:47.037Z,12.30
2019-02-23T17:14:54.540Z,12.20
2019-02-23T17:17:43.178Z,12.20
2019-02-23T17:20:35.636Z,12.10
2019-02-23T17:23:30.901Z,12.10
2019-02-23T17:26:30.224Z,12.20
2019-02-23T17:29:36.435Z,12.20
2019-02-23T17:32:41.049Z,12.30
2019-02-23T17:35:30.924Z,12.20
2019-02-23T17:38:26.432Z,12.30
2019-02-23T17:41:25.088Z,12.20
2019-02-23T17:44:02.660Z,12.20
2019-02-23T17:49:37.672Z,12.20
2019-02-23T17:52:22.056Z,12.30
2019-02-23T17:55:06.559Z,12.20
2019-02-23T17:57:57.952Z,12.20
2019-02-23T18:00:44.911Z,12.20
2019-02-23T18:03:31.538Z,12.10
2019-02-23T18:06:18.972Z,12.10
2019-02-23T18:09:02.058Z,12.30
2019-02-23T18:11:43.184Z,12.20
2019-02-23T18:14:31.763Z,12.20
2019-02-23T18:17:15.001Z,12.10
2019-02-23T18:19:55.586Z,12.10
2019-02-23T18:22:43.195Z,12.10
2019-02-23T18:25:31.975Z,12.20
2019-02-23T18:28:16.101Z,12.10
2019-02-23T18:30:59.779Z,12.10
2019-02-23T18:33:39.474Z,12.10
2019-02-23T18:36:22.858Z,12.10
2019-02-23T18:39:05.104Z,12.10
2019-02-23T18:41:51.977Z,12.10
2019-02-23T18:44:56.448Z,12.10
2019-02-23T18:47:37.364Z,12.10
2019-02-23T18:50:16.559Z,12.10
2019-02-23T18:53:04.743Z,12.10
2019-02-23T18:55:50.907Z,12.10
2019-02-23T18:58:44.359Z,12.10
2019-02-23T19:01:28.991Z,12.10
2019-02-23T19:04:12.335Z,12.10
2019-02-23T19:06:59.392Z,12.10
2019-02-23T19:09:39.340Z,12.10
2019-02-23T19:12:21.880Z,12.10
2019-02-23T19:15:06.173Z,12.10
2019-02-23T19:17:46.888Z,12.10
2019-02-23T19:20:36.650Z,12.20
2019-02-23T19:23:15.569Z,12.10
2019-02-23T19:25:58.572Z,12.10
2019-02-23T19:28:43.397Z,12.00
2019-02-23T19:31:26.601Z,12.10
2019-02-23T19:34:14.889Z,12.10
2019-02-23T19:37:03.158Z,12.10
2019-02-23T19:39:47.076Z,12.10
2019-02-23T19:42:28.949Z,12.10
2019-02-23T19:45:13.301Z,12.10
2019-02-23T19:47:58.142Z,12.10
2019-02-23T19:50:46.852Z,12.10
2019-02-23T19:53:27.056Z,12.10
2019-02-23T19:56:10.865Z,12.10
2019-02-23T19:58:56.645Z,12.00
2019-02-23T20:01:39.714Z,12.00
2019-02-23T20:04:25.363Z,12.00
2019-02-23T20:07:07.566Z,11.90
2019-02-23T20:09:52.391Z,11.90
2019-02-23T20:12:35.773Z,11.90
2019-02-23T20:15:14.602Z,11.90
2019-02-23T20:17:54.580Z,11.90
2019-02-23T20:20:40.407Z,11.90
2019-02-23T20:23:24.898Z,11.90
2019-02-23T20:26:06.596Z,11.90
2019-02-23T20:28:51.457Z,12.00
2019-02-23T20:31:32.542Z,11.90
2019-02-23T20:34:12.791Z,11.90
2019-02-23T20:36:57.051Z,11.90
2019-02-23T20:39:37.916Z,12.00
2019-02-23T20:42:21.438Z,12.00
2019-02-23T20:45:03.393Z,11.90
2019-02-23T20:47:44.703Z,12.00
2019-02-23T20:50:27.470Z,12.00
2019-02-23T20:53:10.575Z,11.90
2019-02-23T20:55:55.136Z,11.90
2019-02-23T20:58:35.912Z,11.90
2019-02-23T21:01:19.235Z,11.90
2019-02-23T21:03:59.620Z,11.90
2019-02-23T21:06:39.305Z,11.90
2019-02-23T21:09:23.316Z,11.90
2019-02-23T21:12:07.096Z,11.90
2019-02-23T21:14:52.611Z,11.90
2019-02-23T21:17:32.928Z,11.90
2019-02-23T21:20:13.757Z,11.90
2019-02-23T21:22:57.196Z,11.90
2019-02-23T21:25:44.148Z,11.90
2019-02-23T21:28:25.850Z,11.90
2019-02-23T21:31:06.536Z,11.90
2019-02-23T21:33:52.913Z,11.90
2019-02-23T21:36:36.141Z,11.80
2019-02-23T21:39:17.301Z,11.80
2019-02-23T21:41:59.283Z,11.80
2019-02-23T21:44:42.601Z,11.80
2019-02-23T21:47:25.722Z,11.80
2019-02-23T21:50:11.186Z,11.80
2019-02-23T21:52:49.375Z,11.80
2019-02-23T21:55:32.170Z,11.80
2019-02-23T21:58:12.458Z,11.80
2019-02-23T22:00:56.928Z,11.80
2019-02-23T22:03:47.583Z,11.90
2019-02-23T22:06:29.396Z,11.90
2019-02-23T22:09:09.256Z,11.80
2019-02-23T22:11:52.025Z,11.80
2019-02-23T22:14:32.860Z,11.80
2019-02-23T22:17:18.125Z,11.90
2019-02-23T22:20:03.045Z,11.90
2019-02-23T22:22:47.688Z,11.80
2019-02-23T22:25:27.266Z,11.90
2019-02-23T22:28:08.051Z,11.80
2019-02-23T22:30:51.400Z,11.80
2019-02-23T22:33:31.489Z,11.80
2019-02-23T22:36:13.604Z,11.80
2019-02-23T22:38:57.851Z,11.80
2019-02-23T22:41:35.938Z,11.80
2019-02-23T22:44:18.380Z,11.80
2019-02-23T22:47:01.386Z,11.80
2019-02-23T22:49:42.622Z,11.80
2019-02-23T22:52:23.824Z,11.80
2019-02-23T22:55:03.945Z,11.80
2019-02-23T22:57:47.256Z,11.80
2019-02-23T23:00:36.971Z,11.80
2019-02-23T23:03:21.783Z,11.70
2019-02-23T23:06:09.013Z,11.80
2019-02-23T23:08:54.184Z,11.80
2019-02-23T23:11:37.879Z,11.80
2019-02-23T23:14:21.717Z,11.80
2019-02-23T23:17:06.549Z,11.80
2019-02-23T23:19:50.810Z,11.80
2019-02-23T23:22:30.747Z,11.80
2019-02-23T23:25:10.544Z,11.80
2019-02-23T23:27:53.960Z,11.80
2019-02-23T23:30:32.724Z,11.80
2019-02-23T23:33:12.134Z,11.80
2019-02-23T23:35:53.740Z,11.90
2019-02-23T23:38:33.048Z,11.90
2019-02-23T23:41:13.988Z,11.90
2019-02-23T23:44:07.687Z,11.90
2019-02-23T23:46:50.160Z,11.90
2019-02-23T23:49:30.416Z,11.90
2019-02-23T23:52:16.983Z,11.90
2019-02-23T23:55:05.926Z,11.90
2019-02-23T23:57:48.322Z,11.90
